Airfield :
LOGIN :

Register | Disclaimer

   EN    FR    IT 

 










Legend :    VFR   Marginal VFR   IFR   Intensive IFR   Very Intensive IFR
Visi :
Ceiling :
>= 8 km
>= 3000ft
5 to 8 km
1000 to 3000 ft
1500m to 5 km
500 to 1000 ft
800 to 1500m
200 to 500 ft
< 800m
< 200 ft
Symbols :   Thunderstorms  Fog  Heavy snow  Heavy precipitations  Wind > 20 kt
SIGMETs :     Misc.  Thunderstorms  Icing  Turbulence  Mountain Waves  Volcanic Ashes






- Airport Elevation : 510 ft


LJCE - Cerklje

CURRENT METAR :
  • 032330Z AUTO VRB03KT 9999 SCT005/// BKN096/// OVC110/// 18/18 Q1004

EXPIRED METARs :
  • 032300Z AUTO VRB01KT 9999 FEW004/// BKN097/// BKN120/// 18/17 Q1004
  • 032230Z AUTO VRB03KT 9999 -SHRA NSC 18/17 Q1004
  • 032200Z AUTO VRB03KT 9999 NSC 18/17 Q1004
  • 032130Z AUTO 07005KT 9999 -SHRA NSC 18/18 Q1004
  • 032100Z AUTO 06001KT 9999 -SHRA NSC 18/18 Q1005 RESHRA

TAF TAF LJCE
Valid from the 04 at 00:00 until the 04 at 09:00 UTC


032300Z 0400/0409 09005KT 9999 FEW010
TEMPO 0400/0401 SHRA SCT030TCU BKN040
PROB40
TEMPO 0401/0406 0500 FG VV001
TEMPO 0406/0409 VRB15KT 5000 TSRA SCT030CB BKN050



MET'MAP, your aeronautical weather chart ! - Copyright ORBIFLY December 2007 - Disclaimer

ORBIFLY MET'MAP TEAM :

Programming & Development : Alexandra Zaïnal
Concept & original design : Baudouin d'Aumeries
Assistance for programming : Marc-Olivier Méhu
Technical & hardware support : Manuel Goepfert

Contact : metmap@orbifly.com




SOURCES & CREDITS :

   NOAA